Iron River, Michigan
Current Conditions -  °F | °C
As of 4:35 AM on Friday 24 Oct 2014 (Local Time) from KLNL Reporting Station
Haze Haze  
Wind Chill: 44°   Ceiling: 100
Heat Index: 44°   Visibility: 0.75mi
Dew Point: 44°   Wind: 0mph
Humidity: 100%   Direction: NA
Pressure: 29.99"   Gusts: NA
Location:  46.09°N, 88.64°W
Report Text: KLNL 240935Z AUTO 00000KT 3/4SM BR OVC001 07/07 A2999 RMK AO2 T00670067
Loading
Personal Weather Stations






























Interactive Weather Map
Tropical Storm Tracking
New forecast layout! Learn more

10-Day Weather Forecast

Advertisements
Track Severe Weather on mobile